Time;durP1;ratioP1;P1;durP2;ratioP2;P2;SDS_P1;SDS_P2;PMS_P1;PMS_P2;Temp;Humidity;BMP_temperature;BMP_pressure;BME280_temperature;BME280_humidity;BME280_pressure;Samples;Min_cycle;Max_cycle;Signal;HPM_P1;HPM_P2
2021/07/21 00:00:22;;;;;;;11.75;5.00;;;;;;;25.22;58.17;101040.47;5030951;28;20026;-88
2021/07/21 00:02:48;;;;;;;5.85;4.53;;;;;;;25.00;57.42;101045.69;5029496;28;20026;-87
2021/07/21 00:05:14;;;;;;;8.65;5.50;;;;;;;24.94;57.97;101041.88;5030378;28;20061;-87
2021/07/21 00:07:40;;;;;;;6.75;4.63;;;;;;;24.95;58.30;101040.03;5031811;28;20033;-88
2021/07/21 00:10:08;;;;;;;7.70;4.60;;;;;;;25.05;58.40;101039.75;5030193;28;20033;-88
2021/07/21 00:15:18;;;;;;;7.70;5.05;;;;;;;24.97;58.17;101047.91;5031133;28;20059;-88
2021/07/21 00:17:45;;;;;;;12.18;4.80;;;;;;;24.93;57.43;101048.25;5031387;28;20021;-88
2021/07/21 00:20:12;;;;;;;7.10;4.40;;;;;;;25.04;57.12;101049.69;5030445;28;20060;-88
2021/07/21 00:22:45;;;;;;;11.48;5.03;;;;;;;25.03;56.57;101052.53;5030788;28;20430;-88
2021/07/21 00:25:15;;;;;;;6.95;4.82;;;;;;;25.13;56.53;101045.84;5027948;28;20150;-88
2021/07/21 00:27:44;;;;;;;8.35;4.68;;;;;;;25.10;56.12;101053.47;5031714;28;20487;-88
2021/07/21 00:30:14;;;;;;;7.63;4.40;;;;;;;25.20;56.08;101051.34;5028750;28;20025;-88
2021/07/21 00:32:40;;;;;;;9.27;4.63;;;;;;;25.12;56.30;101051.44;5029734;28;20021;-88
2021/07/21 00:35:09;;;;;;;6.43;4.25;;;;;;;25.12;57.45;101038.84;5030496;28;20037;-88
2021/07/21 00:37:35;;;;;;;4.72;4.22;;;;;;;25.08;57.21;101055.50;5030414;28;20150;-88
2021/07/21 00:40:01;;;;;;;10.20;5.20;;;;;;;25.12;55.79;101052.28;5031530;28;20018;-88
2021/07/21 00:42:26;;;;;;;10.27;4.18;;;;;;;25.18;55.89;101053.38;5030718;28;20091;-88
2021/07/21 00:44:53;;;;;;;6.82;4.40;;;;;;;25.12;57.18;101054.13;5029935;28;20083;-88
2021/07/21 00:47:19;;;;;;;7.43;4.30;;;;;;;25.13;56.11;101061.16;5029637;28;20040;-88
2021/07/21 00:49:44;;;;;;;7.28;4.45;;;;;;;25.06;56.42;101055.69;5031195;28;20052;-88
2021/07/21 00:52:10;;;;;;;5.22;4.60;;;;;;;25.02;56.98;101061.59;5030458;28;20458;-88
2021/07/21 00:54:35;;;;;;;11.95;4.40;;;;;;;24.98;57.61;101052.25;5029902;28;20028;-88
2021/07/21 00:57:03;;;;;;;7.47;4.38;;;;;;;24.95;57.63;101056.13;5030768;28;20026;-88
2021/07/21 00:59:31;;;;;;;7.15;4.18;;;;;;;24.88;57.88;101053.34;5030628;28;20100;-88
2021/07/21 01:01:57;;;;;;;5.43;4.05;;;;;;;24.85;57.70;101055.56;5027637;28;20177;-88
2021/07/21 01:04:22;;;;;;;8.38;4.45;;;;;;;24.73;57.70;101057.84;5029670;28;20471;-88
2021/07/21 01:06:48;;;;;;;7.32;4.35;;;;;;;24.70;58.65;101051.00;5031649;28;20022;-88
2021/07/21 01:09:14;;;;;;;7.18;3.88;;;;;;;24.68;59.52;101052.19;5034452;28;20030;-88
2021/07/21 01:12:03;;;;;;;6.50;3.65;;;;;;;24.82;59.06;101046.03;5033270;28;20028;-88
2021/07/21 01:14:55;;;;;;;7.07;4.28;;;;;;;24.81;58.50;101049.72;5033201;28;20446;-88
2021/07/21 01:17:51;;;;;;;8.38;4.00;;;;;;;24.77;59.15;101048.41;5016554;28;20030;-88
2021/07/21 01:20:25;;;;;;;9.20;4.53;;;;;;;24.66;59.32;101048.84;5014285;28;20045;-88
2021/07/21 01:23:04;;;;;;;7.13;3.75;;;;;;;24.68;58.99;101049.50;5032582;28;20490;-88
2021/07/21 01:25:40;;;;;;;7.22;4.47;;;;;;;24.64;58.99;101050.88;5033668;28;20037;-88
2021/07/21 01:28:06;;;;;;;5.72;4.05;;;;;;;24.49;59.95;101045.44;5033592;28;20093;-88
2021/07/21 01:30:36;;;;;;;9.93;4.38;;;;;;;24.51;59.87;101036.22;5032661;28;20017;-88
2021/07/21 01:33:10;;;;;;;5.28;4.22;;;;;;;24.34;59.34;101054.25;5032925;28;20029;-88
2021/07/21 01:35:50;;;;;;;6.65;3.85;;;;;;;24.50;58.99;101060.53;5034541;28;20560;-88
2021/07/21 01:38:23;;;;;;;10.02;4.45;;;;;;;24.40;60.27;101062.63;5033687;28;20605;-88
2021/07/21 01:40:56;;;;;;;4.72;3.78;;;;;;;24.41;60.03;101064.28;5031425;28;20612;-88
2021/07/21 01:43:25;;;;;;;7.53;4.05;;;;;;;24.26;59.97;101065.06;5034103;28;20057;-88
2021/07/21 01:45:52;;;;;;;8.38;4.43;;;;;;;24.37;58.94;101074.56;5033708;28;20109;-88
2021/07/21 01:48:18;;;;;;;6.60;4.93;;;;;;;24.33;59.28;101073.25;5034206;28;20036;-88
2021/07/21 01:50:45;;;;;;;4.18;3.78;;;;;;;24.26;59.82;101069.59;5032721;28;20311;-88
2021/07/21 01:53:11;;;;;;;4.28;3.65;;;;;;;24.23;59.65;101083.34;5033302;28;20030;-88
2021/07/21 01:55:38;;;;;;;7.40;4.40;;;;;;;24.22;60.01;101070.97;5032728;28;20029;-88
2021/07/21 01:58:05;;;;;;;7.53;4.15;;;;;;;24.17;60.84;101073.34;5033478;28;20484;-88
2021/07/21 02:00:31;;;;;;;7.97;3.90;;;;;;;24.11;60.53;101081.09;5032882;28;20443;-88
2021/07/21 02:02:56;;;;;;;5.57;4.35;;;;;;;24.04;60.86;101079.28;5030387;28;20034;-88
2021/07/21 02:05:24;;;;;;;8.25;3.92;;;;;;;24.07;60.99;101082.47;5032271;28;20037;-88
2021/07/21 02:07:51;;;;;;;12.55;5.10;;;;;;;24.02;60.50;101074.09;5033182;28;20387;-88
2021/07/21 02:10:22;;;;;;;10.45;5.18;;;;;;;24.15;59.70;101078.88;5033970;28;20115;-88
2021/07/21 02:12:52;;;;;;;8.53;4.87;;;;;;;24.06;60.36;101072.72;5032683;28;20033;-88
2021/07/21 02:15:18;;;;;;;12.13;6.38;;;;;;;23.94;60.67;101074.16;5033148;28;20162;-88
2021/07/21 02:17:45;;;;;;;8.23;4.90;;;;;;;23.92;60.58;101076.16;5033716;28;20030;-88
2021/07/21 02:20:12;;;;;;;12.75;4.90;;;;;;;23.90;60.84;101079.03;5031907;28;20069;-89
2021/07/21 02:22:40;;;;;;;7.93;4.70;;;;;;;23.90;61.43;101078.19;5029516;28;20025;-88
2021/07/21 02:25:08;;;;;;;7.78;4.93;;;;;;;23.80;61.63;101082.94;5032306;28;20034;-88
2021/07/21 02:27:34;;;;;;;8.82;4.50;;;;;;;23.75;61.42;101080.72;5033608;28;20483;-88
2021/07/21 02:30:01;;;;;;;7.00;4.22;;;;;;;23.75;61.14;101080.72;5031393;28;20045;-88
2021/07/21 02:32:33;;;;;;;9.98;4.75;;;;;;;23.78;60.48;101083.09;5031923;28;20106;-88
2021/07/21 02:34:59;;;;;;;6.00;4.00;;;;;;;23.63;61.29;101079.44;5032442;28;20040;-88
2021/07/21 02:37:25;;;;;;;6.40;4.40;;;;;;;23.61;61.75;101082.28;5033315;28;20037;-88
2021/07/21 02:39:52;;;;;;;8.73;4.03;;;;;;;23.58;60.95;101082.66;5032589;28;20124;-88
2021/07/21 02:42:18;;;;;;;6.57;3.83;;;;;;;23.50;61.26;101088.03;5032274;28;20152;-88
2021/07/21 02:44:46;;;;;;;8.13;4.45;;;;;;;23.50;61.22;101083.53;5031037;28;20353;-88
2021/07/21 02:47:13;;;;;;;8.52;4.40;;;;;;;23.42;61.31;101078.19;5013438;28;20025;-88
2021/07/21 02:49:40;;;;;;;6.90;4.05;;;;;;;23.45;61.51;101088.53;5021477;28;20028;-88
2021/07/21 02:52:24;;;;;;;7.15;4.70;;;;;;;23.59;60.87;101087.00;5033025;28;20410;-88
2021/07/21 02:55:04;;;;;;;7.93;3.83;;;;;;;23.54;61.34;101089.38;5031805;28;20562;-88
2021/07/21 02:57:36;;;;;;;6.28;4.10;;;;;;;23.46;61.74;101086.69;5031836;28;20475;-88
2021/07/21 03:00:08;;;;;;;8.20;5.35;;;;;;;23.46;61.82;101089.38;5031902;28;20116;-89
2021/07/21 03:02:35;;;;;;;5.80;4.38;;;;;;;23.34;62.05;101088.91;5031075;28;20026;-87
2021/07/21 03:05:01;;;;;;;7.63;5.10;;;;;;;23.24;62.16;101083.72;5032419;28;20038;-88
2021/07/21 03:07:28;;;;;;;7.43;5.53;;;;;;;23.24;62.09;101082.91;5032730;28;20021;-87
2021/07/21 03:09:55;;;;;;;10.77;5.47;;;;;;;23.24;62.46;101089.09;5031180;28;20041;-88
2021/07/21 03:12:23;;;;;;;11.13;4.45;;;;;;;23.20;62.44;101097.66;5032617;28;20025;-88
2021/07/21 03:14:52;;;;;;;9.23;5.15;;;;;;;23.22;62.46;101096.47;5031937;28;20022;-88
2021/07/21 03:17:19;;;;;;;8.18;4.90;;;;;;;23.11;61.87;101100.34;5032581;28;20036;-88
2021/07/21 03:19:49;;;;;;;8.27;4.93;;;;;;;23.19;62.48;101099.50;5029018;28;20022;-88
2021/07/21 03:22:19;;;;;;;5.88;4.50;;;;;;;23.10;62.56;101097.84;5032502;28;20033;-88
2021/07/21 03:24:44;;;;;;;10.02;4.75;;;;;;;23.00;62.86;101094.47;5030785;28;20029;-88
2021/07/21 03:27:12;;;;;;;7.10;4.53;;;;;;;22.99;63.10;101098.16;5030565;28;20037;-88
2021/07/21 03:29:38;;;;;;;7.20;4.57;;;;;;;22.91;63.11;101099.84;5030812;28;20056;-88
2021/07/21 03:32:06;;;;;;;8.05;4.65;;;;;;;22.98;62.78;101102.66;5028316;28;20057;-88
2021/07/21 03:34:35;;;;;;;9.15;5.03;;;;;;;22.94;63.09;101098.66;5031037;28;20025;-88
2021/07/21 03:37:01;;;;;;;7.78;4.53;;;;;;;22.85;63.43;101100.50;5032306;28;20431;-88
2021/07/21 03:39:26;;;;;;;7.60;4.43;;;;;;;22.86;63.83;101107.53;5030768;28;20021;-88
2021/07/21 03:41:53;;;;;;;6.35;4.63;;;;;;;22.83;63.44;101110.56;5032222;28;20088;-88
2021/07/21 03:44:24;;;;;;;8.30;5.10;;;;;;;22.89;63.51;101106.38;5031155;28;20037;-88
2021/07/21 03:46:50;;;;;;;10.50;4.75;;;;;;;22.78;63.62;101111.03;5032347;28;20044;-87
2021/07/21 03:49:18;;;;;;;6.18;4.32;;;;;;;22.82;63.87;101108.03;5029557;28;20034;-88
2021/07/21 03:51:45;;;;;;;8.07;4.57;;;;;;;22.77;63.82;101113.91;5031997;28;20029;-88
2021/07/21 03:54:12;;;;;;;9.18;4.95;;;;;;;22.82;63.28;101122.25;5031728;28;20029;-89
2021/07/21 03:56:41;;;;;;;7.28;4.43;;;;;;;22.86;63.44;101112.88;5030968;28;20029;-90
2021/07/21 03:59:07;;;;;;;5.70;4.68;;;;;;;22.77;63.50;101125.44;5030127;28;20513;-90
2021/07/21 04:01:36;;;;;;;10.02;4.68;;;;;;;22.83;62.95;101115.91;5029200;28;20159;-90
2021/07/21 04:04:04;;;;;;;5.10;4.43;;;;;;;22.70;63.33;101116.38;5029407;28;20410;-89
2021/07/21 04:06:33;;;;;;;7.30;4.43;;;;;;;22.81;63.59;101109.03;5031124;28;20056;-89
2021/07/21 04:09:04;;;;;;;7.15;4.60;;;;;;;22.84;63.76;101120.25;5031842;28;20539;-89
2021/07/21 04:11:32;;;;;;;7.63;4.82;;;;;;;22.85;63.55;101116.56;5030638;28;20103;-89
2021/07/21 04:14:00;;;;;;;6.68;4.53;;;;;;;22.85;63.26;101126.44;5031087;28;20037;-89
2021/07/21 04:16:26;;;;;;;6.20;4.57;;;;;;;22.77;63.68;101121.94;5031742;28;20025;-89
2021/07/21 04:18:52;;;;;;;7.90;5.03;;;;;;;22.72;63.88;101121.59;5026943;28;20120;-90
2021/07/21 04:21:17;;;;;;;9.73;5.75;;;;;;;22.70;63.66;101128.94;5027504;28;20108;-90
2021/07/21 04:23:43;;;;;;;9.48;5.32;;;;;;;22.58;64.20;101115.88;5029365;28;20120;-89
2021/07/21 04:26:12;;;;;;;8.48;5.63;;;;;;;22.50;64.09;101126.56;5032128;28;20034;-89
2021/07/21 04:28:39;;;;;;;6.97;4.85;;;;;;;22.60;64.21;101128.28;5031071;28;20393;-90
2021/07/21 04:31:05;;;;;;;6.00;4.63;;;;;;;22.52;64.47;101124.56;5030762;28;20539;-90
2021/07/21 04:33:33;;;;;;;8.20;4.75;;;;;;;22.62;64.37;101134.28;5029789;28;20037;-90
2021/07/21 04:36:00;;;;;;;6.70;4.68;;;;;;;22.58;64.40;101125.75;5030250;28;20867;-90
2021/07/21 04:38:26;;;;;;;7.20;5.22;;;;;;;22.56;64.56;101123.22;5030727;28;20116;-90
2021/07/21 04:40:53;;;;;;;6.13;5.28;;;;;;;22.65;64.57;101131.28;5029946;28;20026;-90
2021/07/21 04:43:19;;;;;;;8.93;5.32;;;;;;;22.65;64.29;101134.81;5034290;28;20491;-90
2021/07/21 04:45:47;;;;;;;11.40;5.45;;;;;;;22.69;64.54;101132.59;5034829;28;20781;-90
2021/07/21 04:48:14;;;;;;;6.55;5.00;;;;;;;22.91;63.77;101131.13;5035485;28;20028;-90
2021/07/21 04:50:42;;;;;;;7.38;5.10;;;;;;;22.74;64.24;101132.97;5033180;28;20065;-90
2021/07/21 04:53:08;;;;;;;10.70;5.75;;;;;;;22.68;64.14;101136.31;5034165;28;20029;-90
2021/07/21 04:55:33;;;;;;;8.75;5.47;;;;;;;22.71;64.75;101136.81;5035238;28;20033;-90
2021/07/21 04:57:58;;;;;;;7.35;5.38;;;;;;;22.74;64.31;101141.00;5034355;28;20492;-90
2021/07/21 05:00:24;;;;;;;6.72;5.70;;;;;;;22.73;64.87;101139.34;5033443;28;20395;-89
2021/07/21 05:02:49;;;;;;;9.90;5.30;;;;;;;22.71;64.75;101133.28;5033824;28;20491;-90
2021/07/21 05:05:15;;;;;;;9.85;5.28;;;;;;;22.74;64.63;101141.00;5035050;28;20033;-90
2021/07/21 05:07:40;;;;;;;6.25;4.68;;;;;;;22.80;64.25;101139.50;5034803;28;20076;-90
2021/07/21 05:10:06;;;;;;;9.13;5.45;;;;;;;22.81;64.46;101143.84;5032688;28;20021;-90
2021/07/21 05:12:32;;;;;;;9.38;5.57;;;;;;;22.85;64.36;101138.00;5034524;28;20120;-90
2021/07/21 05:14:57;;;;;;;9.38;4.60;;;;;;;22.85;64.46;101148.69;5033539;28;20127;-90
2021/07/21 05:17:22;;;;;;;9.48;5.18;;;;;;;22.93;64.38;101150.56;5034653;28;20021;-90
2021/07/21 05:19:47;;;;;;;6.18;4.68;;;;;;;22.91;64.17;101142.69;5032471;28;20112;-90
2021/07/21 05:22:13;;;;;;;7.00;5.47;;;;;;;23.00;64.56;101150.72;5034480;28;20096;-90
2021/07/21 05:24:38;;;;;;;11.15;6.03;;;;;;;23.03;63.99;101155.78;5033785;28;20033;-90
2021/07/21 05:27:04;;;;;;;9.35;5.47;;;;;;;23.11;64.48;101150.41;5033253;28;20034;-90
2021/07/21 05:29:30;;;;;;;10.18;5.72;;;;;;;23.11;63.61;101155.78;5034272;28;20041;-89
2021/07/21 05:31:55;;;;;;;11.85;5.00;;;;;;;23.14;64.17;101163.44;5033198;28;20091;-89
2021/07/21 05:34:21;;;;;;;6.13;4.95;;;;;;;23.15;63.66;101165.13;5033518;28;20036;-90
2021/07/21 05:36:46;;;;;;;7.20;4.90;;;;;;;23.20;63.66;101162.78;5034253;28;20029;-90
2021/07/21 05:39:12;;;;;;;7.75;5.22;;;;;;;23.23;63.93;101165.13;5033082;28;20053;-89
2021/07/21 05:41:37;;;;;;;6.72;5.13;;;;;;;23.28;64.17;101165.47;5033607;28;20450;-90
2021/07/21 05:44:03;;;;;;;8.88;5.03;;;;;;;23.32;63.91;101176.66;5033453;28;20033;-89
2021/07/21 05:46:29;;;;;;;13.15;5.68;;;;;;;23.22;64.18;101165.28;5034389;28;20152;-90
2021/07/21 05:48:54;;;;;;;7.38;5.70;;;;;;;23.23;64.09;101173.16;5032610;28;20060;-89
2021/07/21 05:51:19;;;;;;;10.25;6.25;;;;;;;23.39;63.92;101164.28;5032831;28;20036;-89
2021/07/21 05:53:45;;;;;;;7.82;6.13;;;;;;;23.69;62.85;101173.41;5032648;28;20036;-90
2021/07/21 05:56:12;;;;;;;9.27;6.18;;;;;;;23.62;63.12;101169.75;5033266;28;20031;-89
2021/07/21 05:58:38;;;;;;;9.68;5.28;;;;;;;23.62;63.38;101174.25;5031888;28;20035;-89
2021/07/21 06:01:03;;;;;;;6.47;5.38;;;;;;;23.67;63.17;101179.97;5031155;28;20574;-90
2021/07/21 06:03:29;;;;;;;7.78;5.55;;;;;;;23.71;63.15;101182.13;5031317;28;20029;-89
2021/07/21 06:05:54;;;;;;;8.57;6.05;;;;;;;23.82;63.04;101180.13;5033312;28;20087;-89
2021/07/21 06:08:19;;;;;;;18.38;6.00;;;;;;;23.95;62.04;101183.09;5033747;28;20028;-90
2021/07/21 06:10:45;;;;;;;6.80;5.85;;;;;;;24.06;62.43;101193.44;5030655;28;20060;-89
2021/07/21 06:13:11;;;;;;;7.13;5.90;;;;;;;24.18;62.82;101195.75;5033746;28;20061;-89
2021/07/21 06:15:40;;;;;;;6.13;4.90;;;;;;;24.25;62.05;101200.25;5032141;28;20025;-89
2021/07/21 06:18:07;;;;;;;12.32;5.15;;;;;;;24.41;61.36;101207.38;5037037;28;20037;-89
2021/07/21 06:20:32;;;;;;;9.05;5.35;;;;;;;24.59;61.04;101203.63;5032068;28;20029;-90
2021/07/21 06:22:57;;;;;;;9.88;4.63;;;;;;;24.70;59.99;101198.69;5028760;28;20125;-90
2021/07/21 06:25:23;;;;;;;6.47;5.18;;;;;;;24.88;59.28;101205.59;5033312;28;20034;-89
2021/07/21 06:27:50;;;;;;;16.10;7.18;;;;;;;25.01;59.87;101211.22;5034142;28;20061;-89
2021/07/21 06:30:15;;;;;;;9.30;5.60;;;;;;;25.17;58.59;101215.63;5032078;28;20079;-93
2021/07/21 06:32:41;;;;;;;7.20;5.28;;;;;;;25.66;58.49;101217.91;5032385;28;20029;-81
2021/07/21 06:35:07;;;;;;;10.93;5.68;;;;;;;26.49;56.13;101210.53;5032407;28;20057;-82
2021/07/21 06:37:34;;;;;;;9.80;5.57;;;;;;;27.12;53.97;101204.56;5032516;28;20022;-83
2021/07/21 06:39:59;;;;;;;10.10;5.57;;;;;;;27.84;51.29;101208.88;5032345;28;20509;-82
2021/07/21 06:42:25;;;;;;;6.65;5.22;;;;;;;28.27;50.78;101208.66;5033182;28;20104;-82
2021/07/21 06:44:52;;;;;;;7.80;4.97;;;;;;;28.76;49.81;101209.47;5032237;28;20064;-82
2021/07/21 06:47:17;;;;;;;9.20;4.97;;;;;;;29.32;48.42;101212.88;5033270;28;20084;-80
2021/07/21 06:49:42;;;;;;;7.03;5.00;;;;;;;29.94;46.05;101206.13;5031285;28;20022;-82
2021/07/21 06:52:08;;;;;;;10.25;5.10;;;;;;;30.72;45.19;101204.31;5031911;28;20490;-83
2021/07/21 06:54:33;;;;;;;7.20;4.93;;;;;;;31.33;43.54;101203.66;5032377;28;20025;-82
2021/07/21 06:56:59;;;;;;;8.68;4.35;;;;;;;31.38;42.97;101198.41;5033084;28;20531;-83
2021/07/21 06:59:27;;;;;;;9.30;4.40;;;;;;;31.74;42.42;101201.44;5028796;28;20474;-82
2021/07/21 07:01:53;;;;;;;4.63;3.72;;;;;;;32.15;40.79;101202.63;5026363;28;20444;-83
2021/07/21 07:04:18;;;;;;;5.32;3.60;;;;;;;32.92;39.79;101204.69;5030338;28;20120;-82
2021/07/21 07:06:43;;;;;;;7.20;4.20;;;;;;;33.27;39.42;101214.84;5023840;28;20484;-83
2021/07/21 07:09:09;;;;;;;7.22;4.30;;;;;;;33.68;38.76;101210.38;5024213;28;20099;-84
2021/07/21 07:11:34;;;;;;;10.15;4.30;;;;;;;34.14;39.14;101214.91;5026363;28;20400;-83
2021/07/21 07:13:59;;;;;;;8.32;4.07;;;;;;;33.82;37.09;101221.81;5030520;28;20125;-83
2021/07/21 07:16:25;;;;;;;11.05;3.88;;;;;;;34.46;37.87;101224.50;5027745;28;20041;-84
2021/07/21 07:18:50;;;;;;;7.50;3.50;;;;;;;35.06;36.58;101215.78;5031948;28;20025;-84
2021/07/21 07:21:16;;;;;;;7.82;3.38;;;;;;;35.09;35.46;101220.75;5023831;28;20030;-84
2021/07/21 07:23:41;;;;;;;7.82;3.65;;;;;;;35.13;34.24;101232.81;5012628;28;20022;-84
2021/07/21 07:26:06;;;;;;;6.40;3.28;;;;;;;35.72;34.71;101213.25;5012806;28;20026;-82
2021/07/21 07:28:32;;;;;;;9.25;3.58;;;;;;;36.16;33.22;101215.19;5012600;28;20431;-83
2021/07/21 07:30:57;;;;;;;5.97;3.15;;;;;;;36.52;33.03;101210.91;5013630;28;20476;-84
2021/07/21 07:33:22;;;;;;;5.18;3.10;;;;;;;37.00;32.72;101216.56;5024437;28;20105;-84
2021/07/21 07:35:48;;;;;;;10.35;3.60;;;;;;;37.28;32.74;101222.81;5024178;28;20372;-84
2021/07/21 07:38:14;;;;;;;7.80;3.33;;;;;;;37.28;31.24;101222.81;5032418;28;20388;-84
2021/07/21 07:40:40;;;;;;;5.47;3.00;;;;;;;37.43;31.56;101224.84;5014454;28;20025;-83
2021/07/21 07:43:07;;;;;;;6.63;3.00;;;;;;;37.78;31.41;101223.41;5012360;28;20184;-83
2021/07/21 07:45:33;;;;;;;7.03;3.35;;;;;;;38.02;30.82;101226.53;5012305;28;20030;-83
2021/07/21 07:47:59;;;;;;;7.55;3.35;;;;;;;37.98;29.78;101222.69;5027187;28;20056;-84
2021/07/21 07:50:24;;;;;;;10.25;3.00;;;;;;;38.03;31.33;101231.72;5031237;28;20475;-84
2021/07/21 07:52:50;;;;;;;5.53;3.13;;;;;;;38.04;30.22;101229.84;5012595;28;20026;-84
2021/07/21 07:55:15;;;;;;;8.23;3.42;;;;;;;38.80;29.81;101236.63;5012450;28;20037;-84
2021/07/21 07:57:40;;;;;;;7.07;3.17;;;;;;;38.98;28.45;101230.59;5012253;28;20491;-83
2021/07/21 08:00:09;;;;;;;5.70;3.03;;;;;;;39.16;28.68;101234.72;5012298;28;20105;-84
2021/07/21 08:02:34;;;;;;;6.75;3.00;;;;;;;39.43;28.04;101236.34;5029382;28;20395;-84
2021/07/21 08:04:59;;;;;;;4.88;3.17;;;;;;;39.79;29.22;101234.34;5031335;28;20025;-84
2021/07/21 08:07:28;;;;;;;8.68;2.75;;;;;;;40.53;28.26;101229.03;5031810;28;20111;-84
2021/07/21 08:09:53;;;;;;;9.38;3.00;;;;;;;40.70;28.18;101233.28;5032055;28;20388;-84
2021/07/21 08:12:19;;;;;;;4.63;2.63;;;;;;;40.67;26.56;101223.69;5016280;28;20029;-83
2021/07/21 08:14:44;;;;;;;8.75;2.95;;;;;;;40.69;26.00;101221.47;5011968;28;20033;-83
2021/07/21 08:17:09;;;;;;;5.30;2.75;;;;;;;41.22;24.85;101223.53;5027445;28;20048;-84
2021/07/21 08:19:36;;;;;;;6.70;2.83;;;;;;;40.95;26.02;101224.84;5031358;28;20032;-84
2021/07/21 08:22:02;;;;;;;4.95;2.58;;;;;;;40.92;24.30;101224.59;5019047;28;20508;-84
2021/07/21 08:24:27;;;;;;;8.63;2.30;;;;;;;40.89;25.39;101225.19;5011868;28;20102;-83
2021/07/21 08:26:52;;;;;;;7.32;2.10;;;;;;;41.52;25.76;101227.88;5011992;28;20495;-83
2021/07/21 08:29:18;;;;;;;6.63;3.05;;;;;;;40.96;23.81;101226.50;5012765;28;20383;-83
2021/07/21 08:31:43;;;;;;;6.53;2.47;;;;;;;41.27;24.54;101222.66;5030514;28;20029;-83
2021/07/21 08:34:10;;;;;;;8.10;2.58;;;;;;;41.69;23.02;101223.84;5031030;28;20029;-84
2021/07/21 08:36:36;;;;;;;4.80;1.92;;;;;;;41.62;25.15;101232.50;5030262;28;20105;-82
2021/07/21 08:39:05;;;;;;;4.60;2.47;;;;;;;41.64;25.01;101233.03;5025752;28;20049;-84
2021/07/21 08:41:33;;;;;;;4.85;2.60;;;;;;;41.96;24.32;101231.53;5012086;28;20022;-83
2021/07/21 08:43:59;;;;;;;4.22;2.35;;;;;;;42.16;24.26;101230.44;5011455;28;20062;-86
2021/07/21 08:46:24;;;;;;;4.20;2.70;;;;;;;41.93;23.78;101234.88;5011389;28;20061;-88
2021/07/21 08:48:53;;;;;;;5.75;2.30;;;;;;;42.69;22.46;101232.16;5028042;28;20428;-81
2021/07/21 08:51:24;;;;;;;2.70;1.75;;;;;;;43.11;22.07;101227.59;5030783;28;20113;-82
2021/07/21 08:53:51;;;;;;;5.78;2.45;;;;;;;43.50;23.00;101223.56;5021654;28;20034;-79
2021/07/21 08:56:18;;;;;;;3.75;1.83;;;;;;;43.62;22.79;101223.03;5029966;28;20036;-79
2021/07/21 08:58:47;;;;;;;4.68;2.25;;;;;;;44.01;21.73;101228.03;5013477;28;20030;-78
2021/07/21 09:01:14;;;;;;;7.17;2.20;;;;;;;43.66;20.86;101219.34;5011648;28;20021;-80
2021/07/21 09:03:41;;;;;;;6.93;1.83;;;;;;;43.43;22.09;101225.91;5013815;28;20279;-81
2021/07/21 09:06:07;;;;;;;5.90;1.95;;;;;;;43.81;22.23;101214.66;5031119;28;20094;-81
2021/07/21 09:08:34;;;;;;;6.30;1.88;;;;;;;44.00;20.98;101218.13;5030905;28;20501;-81
2021/07/21 09:10:59;;;;;;;5.20;1.95;;;;;;;44.22;21.48;101217.38;5031098;28;20041;-81
2021/07/21 09:13:25;;;;;;;4.22;2.00;;;;;;;44.27;20.81;101219.19;5031039;28;20488;-81
2021/07/21 09:15:50;;;;;;;4.13;1.83;;;;;;;43.98;22.11;101217.56;5030831;28;20045;-81
2021/07/21 09:18:17;;;;;;;7.30;2.22;;;;;;;43.89;21.57;101213.94;5030080;28;20426;-81
2021/07/21 09:20:47;;;;;;;6.65;2.50;;;;;;;44.46;21.87;101222.59;5031102;28;20491;-78
2021/07/21 09:23:13;;;;;;;3.75;2.03;;;;;;;44.49;20.29;101213.69;5030862;28;20510;-78
2021/07/21 09:25:41;;;;;;;6.68;2.08;;;;;;;44.54;20.33;101212.75;5016159;28;20061;-78
2021/07/21 09:28:09;;;;;;;5.60;1.75;;;;;;;44.65;21.00;101213.31;5011318;28;20599;-78
2021/07/21 09:30:38;;;;;;;10.43;2.10;;;;;;;44.39;21.35;101208.38;5024721;28;20037;-78
2021/07/21 09:33:09;;;;;;;6.15;2.33;;;;;;;44.50;19.79;101209.78;5033742;28;20506;-78
2021/07/21 09:35:40;;;;;;;5.40;1.95;;;;;;;44.37;21.14;101210.63;5033720;28;20037;-78
2021/07/21 09:38:09;;;;;;;4.47;1.88;;;;;;;44.39;20.55;101226.94;5034630;28;20025;-78
2021/07/21 09:40:36;;;;;;;11.02;2.15;;;;;;;44.11;20.94;101218.72;5034486;28;20029;-78
2021/07/21 09:43:02;;;;;;;7.90;2.10;;;;;;;43.95;20.44;101209.91;5034676;28;20025;-78
2021/07/21 09:45:35;;;;;;;5.25;1.92;;;;;;;44.49;20.69;101210.91;5021361;28;20037;-78
2021/07/21 09:48:00;;;;;;;7.35;2.38;;;;;;;44.37;20.49;101213.41;5022091;28;20430;-78
2021/07/21 09:50:30;;;;;;;8.18;1.98;;;;;;;44.73;20.45;101215.31;5033829;28;20029;-78
2021/07/21 09:53:04;;;;;;;4.23;1.73;;;;;;;44.68;20.45;101215.44;5033998;28;20036;-79
2021/07/21 09:55:30;;;;;;;3.67;1.80;;;;;;;45.18;21.10;101217.22;5033405;28;20616;-80
2021/07/21 09:58:05;;;;;;;5.90;1.90;;;;;;;44.30;20.42;101219.38;5034144;28;20056;-80
2021/07/21 10:00:34;;;;;;;5.78;2.22;;;;;;;44.41;18.99;101217.16;5034248;28;20018;-80
2021/07/21 10:03:15;;;;;;;4.45;1.73;;;;;;;44.69;20.07;101222.59;5034028;28;20079;-79
2021/07/21 10:06:09;;;;;;;3.85;1.58;;;;;;;45.00;19.92;101224.63;5033584;28;20036;-82
2021/07/21 10:08:48;;;;;;;3.67;1.60;;;;;;;44.56;19.41;101218.78;5033646;28;20426;-80
2021/07/21 10:11:30;;;;;;;7.03;2.40;;;;;;;44.64;19.78;101225.53;5033723;28;20087;-80
2021/07/21 10:13:55;;;;;;;3.50;1.45;;;;;;;44.50;20.08;101220.88;5034014;28;20383;-80
2021/07/21 10:16:50;;;;;;;5.82;1.90;;;;;;;44.73;20.68;101226.38;5014729;28;20029;-80
2021/07/21 10:19:18;;;;;;;4.00;1.90;;;;;;;45.16;19.73;101223.06;5021378;28;20384;-80
2021/07/21 10:21:51;;;;;;;4.38;1.88;;;;;;;45.36;20.01;101220.91;5033397;28;20025;-80
2021/07/21 10:24:17;;;;;;;5.07;1.88;;;;;;;45.63;20.24;101226.19;5032891;28;20022;-80
2021/07/21 10:26:44;;;;;;;5.68;2.15;;;;;;;45.20;18.99;101223.25;5033555;28;20064;-80
2021/07/21 10:29:10;;;;;;;7.32;2.10;;;;;;;45.18;19.94;101219.97;5033684;28;20033;-80
2021/07/21 10:31:36;;;;;;;4.60;1.90;;;;;;;45.44;19.15;101225.66;5033780;28;20452;-80
2021/07/21 10:34:02;;;;;;;7.63;2.50;;;;;;;45.55;19.73;101223.41;5033363;28;20032;-80
2021/07/21 10:36:29;;;;;;;8.70;2.03;;;;;;;45.74;19.82;101232.31;5033084;28;20066;-80
2021/07/21 10:38:54;;;;;;;6.65;1.73;;;;;;;45.84;17.83;101225.63;5033301;28;20091;-80
2021/07/21 10:41:21;;;;;;;5.60;2.00;;;;;;;45.71;17.73;101222.66;5031629;28;20021;-80
2021/07/21 10:43:49;;;;;;;6.35;2.45;;;;;;;44.85;19.06;101234.13;5033251;28;20121;-80
2021/07/21 10:46:42;;;;;;;6.30;2.05;;;;;;;45.31;17.76;101233.78;5032273;28;20496;-80
2021/07/21 11:00:20;;;;;;;5.80;2.35;;;;;;;44.76;20.20;101223.00;5033329;28;20083;-80
2021/07/21 11:02:47;;;;;;;10.02;2.25;;;;;;;44.34;20.92;101225.13;5032439;28;20022;-79
2021/07/21 11:05:32;;;;;;;5.63;2.08;;;;;;;44.26;20.66;101221.13;5032261;28;20025;-79
2021/07/21 11:08:03;;;;;;;6.90;2.20;;;;;;;43.95;22.01;101216.25;5032714;28;20033;-79
2021/07/21 11:10:34;;;;;;;6.32;2.10;;;;;;;44.12;20.88;101212.88;5031443;28;20037;-79
2021/07/21 11:13:01;;;;;;;5.93;2.17;;;;;;;44.05;20.49;101212.44;5032672;28;20392;-79
2021/07/21 11:15:35;;;;;;;11.57;2.80;;;;;;;44.10;21.05;101219.84;5031863;28;20045;-81
2021/07/21 11:18:22;;;;;;;4.90;2.20;;;;;;;44.11;21.08;101213.19;5022941;28;20105;-91
2021/07/21 11:21:16;;;;;;;6.18;2.30;;;;;;;44.58;20.81;101210.19;5032291;28;20430;-92
2021/07/21 11:23:43;;;;;;;5.75;2.20;;;;;;;44.65;22.12;101210.53;5032185;28;20087;-91
2021/07/21 11:26:38;;;;;;;4.75;2.00;;;;;;;45.33;19.74;101205.72;5029281;28;20029;-90
2021/07/21 11:29:25;;;;;;;5.75;2.53;;;;;;;45.31;19.34;101205.22;5012554;28;20034;-93
2021/07/21 11:31:53;;;;;;;4.55;2.53;;;;;;;45.58;20.48;101201.41;5012637;28;20025;-91
2021/07/21 11:34:37;;;;;;;7.25;2.35;;;;;;;45.51;19.78;101206.59;5019044;28;20499;-91
2021/07/21 11:37:03;;;;;;;4.63;2.28;;;;;;;44.73;20.28;101202.28;5013208;28;20645;-91
2021/07/21 11:39:51;;;;;;;7.07;1.92;;;;;;;45.32;19.32;101193.84;5016096;28;20025;-91
2021/07/21 11:42:23;;;;;;;8.98;2.10;;;;;;;45.41;18.43;101195.81;5027783;28;20029;-91